Aeroporto :
LOGIN :

Iscrizione | Disclaimer

   EN    FR    IT 

 










Sommario :    VFR   VFR Marginale   IFR   IFR Intensivo   IFR Molto Intensivo
Visibilità : 
Base nubi : 
>= 8 km
>= 3000ft
5 / 8 km
1000 / 3000 ft
1500m / 5 km
500 / 1000 ft
800 / 1500m
200 / 500 ft
< 800m
< 200 ft
Simboli :   Temporali  Nebbia  Neve Forte  Precipitazioni Forti  Vento > 20 kt
SIGMETs :   Varie  Temporali  Ghiacco  Turbolenza  Onda orograficha  Ceneri Vulcaniche






- Altitudine del aeroporto : 44 ft
- Codice IATA : SOU


EGHI - Southampton

ULTIMO METAR :
  • 231350Z 36013KT 320V030 9999 BKN045 12/02 Q1022

METARs OBSOLETI :
  • 231320Z 36015KT 330V030 9999 BKN040 11/01 Q1022
  • 231250Z 36012KT 320V030 9999 BKN040 12/03 Q1022
  • 231220Z 36011KT 320V040 9999 BKN035 11/02 Q1023
  • 231150Z 36011KT 340V040 9999 BKN033 11/03 Q1023
  • 231120Z 35011KT 300V030 9999 BKN032 11/03 Q1023
  • 231050Z 36010KT 320V050 9999 BKN033 11/04 Q1023
  • 230950Z 35008KT 300V040 9999 FEW020 SCT024 12/05 Q1023
  • 230920Z 33008KT 290V360 9999 FEW013 SCT021 11/04 Q1023
  • 230850Z 33005KT 280V010 9000 SCT013 SCT025 10/05 Q1024

TAF TAF EGHI
Valido dal 23 a 12 ore il 23 a 21 ore UTC


231058Z 2312/2321 01008KT 9999 SCT030
ATIS : +44 23 8062 7103



MetMap, La meteo Aeronautica in un colpo d'occhio ! - Copyright ORBIFLY Dicembre 2007 - Disclaimer

ORBIFLY MET'MAP TEAM :

Programmazione e sviluppo : Alexandra Zaïnal
Concezione : Baudouin d'Aumeries
Supporto tecnico e logistico : Manuel Goepfert
Aiuto : Marc-Olivier Méhu
Aiuto per la traduzione : Arnaldo La Scala




FONTI E CREDITI :

   NOAA